sensor_id;sensor_type;location;lat;lon;timestamp;pressure;altitude;pressure_sealevel;temperature;humidity
70046;BME280;57385;41.832;23.494;2022-08-19T04:22:13;90976.72;;;19.10;61.54
70046;BME280;57385;41.832;23.494;2022-08-19T04:22:56;90961.22;;;19.00;60.57
70046;BME280;57385;41.832;23.494;2022-08-19T04:23:51;90959.44;;;18.95;60.93
70046;BME280;57385;41.832;23.494;2022-08-19T04:24:14;90972.59;;;19.04;61.05
70046;BME280;57385;41.832;23.494;2022-08-19T04:26:42;90972.84;;;19.07;61.52
70046;BME280;57385;41.832;23.494;2022-08-19T04:28:00;90973.34;;;19.09;61.42
70046;BME280;57385;41.832;23.494;2022-08-19T04:29:04;90971.31;;;19.06;60.89
70046;BME280;57385;41.832;23.494;2022-08-19T04:33:28;91006.66;;;19.31;60.65
70046;BME280;57385;41.832;23.494;2022-08-19T04:37:12;91011.81;;;19.36;60.97
70046;BME280;57385;41.832;23.494;2022-08-19T04:37:32;90995.47;;;19.31;61.24
70046;BME280;57385;41.832;23.494;2022-08-19T04:38:30;90982.59;;;19.20;61.25
70046;BME280;57385;41.832;23.494;2022-08-19T04:38:56;90993.66;;;19.31;61.17
70046;BME280;57385;41.832;23.494;2022-08-19T04:39:22;90991.03;;;19.31;61.17
70046;BME280;57385;41.832;23.494;2022-08-19T04:40:47;90978.19;;;19.16;61.04
70046;BME280;57385;41.832;23.494;2022-08-19T04:41:16;90980.53;;;19.17;60.89
70046;BME280;57385;41.832;23.494;2022-08-19T04:41:38;90976.38;;;19.16;60.90
70046;BME280;57385;41.832;23.494;2022-08-19T04:42:01;90982.75;;;19.29;60.90
70046;BME280;57385;41.832;23.494;2022-08-19T04:42:23;90996.00;;;19.33;61.15
70046;BME280;57385;41.832;23.494;2022-08-19T04:42:46;90979.16;;;19.25;61.29
70046;BME280;57385;41.832;23.494;2022-08-19T04:43:15;90993.34;;;19.38;61.11
70046;BME280;57385;41.832;23.494;2022-08-19T04:43:37;90972.97;;;19.21;60.89
70046;BME280;57385;41.832;23.494;2022-08-19T04:43:57;90987.94;;;19.29;60.79
70046;BME280;57385;41.832;23.494;2022-08-19T04:44:17;90977.34;;;19.26;60.73
70046;BME280;57385;41.832;23.494;2022-08-19T04:44:36;90995.66;;;19.39;60.56
70046;BME280;57385;41.832;23.494;2022-08-19T04:44:56;90983.03;;;19.28;60.80
70046;BME280;57385;41.832;23.494;2022-08-19T04:45:15;91005.50;;;19.42;61.36
70046;BME280;57385;41.832;23.494;2022-08-19T04:45:36;90976.56;;;19.25;60.86
70046;BME280;57385;41.832;23.494;2022-08-19T04:45:56;90985.31;;;19.34;60.72
70046;BME280;57385;41.832;23.494;2022-08-19T04:46:15;90986.91;;;19.30;60.90
70046;BME280;57385;41.832;23.494;2022-08-19T04:46:35;90981.69;;;19.30;60.72
70046;BME280;57385;41.832;23.494;2022-08-19T04:46:54;90989.78;;;19.29;60.37
70046;BME280;57385;41.832;23.494;2022-08-19T04:47:14;91003.94;;;19.41;60.60
70046;BME280;57385;41.832;23.494;2022-08-19T04:47:33;90980.16;;;19.29;60.92
70046;BME280;57385;41.832;23.494;2022-08-19T04:47:55;90990.53;;;19.34;60.41
70046;BME280;57385;41.832;23.494;2022-08-19T04:48:14;90980.44;;;19.28;60.85
70046;BME280;57385;41.832;23.494;2022-08-19T04:48:35;90988.91;;;19.38;60.94
70046;BME280;57385;41.832;23.494;2022-08-19T04:48:54;90992.56;;;19.37;61.01
70046;BME280;57385;41.832;23.494;2022-08-19T04:49:14;90994.88;;;19.39;60.77
70046;BME280;57385;41.832;23.494;2022-08-19T04:49:34;90979.94;;;19.26;60.73
70046;BME280;57385;41.832;23.494;2022-08-19T04:49:54;90991.56;;;19.33;60.90
70046;BME280;57385;41.832;23.494;2022-08-19T04:50:16;90976.00;;;19.28;60.54
70046;BME280;57385;41.832;23.494;2022-08-19T04:50:42;90988.44;;;19.31;60.76
70046;BME280;57385;41.832;23.494;2022-08-19T04:51:06;90993.13;;;19.34;60.80
70046;BME280;57385;41.832;23.494;2022-08-19T04:51:27;90983.81;;;19.28;60.90
70046;BME280;57385;41.832;23.494;2022-08-19T04:51:46;90975.72;;;19.30;60.63
70046;BME280;57385;41.832;23.494;2022-08-19T04:52:06;90993.56;;;19.41;60.74
70046;BME280;57385;41.832;23.494;2022-08-19T04:52:25;90982.16;;;19.37;60.64
70046;BME280;57385;41.832;23.494;2022-08-19T04:52:45;90977.78;;;19.33;60.40
70046;BME280;57385;41.832;23.494;2022-08-19T04:53:05;90999.25;;;19.43;60.67
70046;BME280;57385;41.832;23.494;2022-08-19T04:53:29;90992.50;;;19.42;60.98
70046;BME280;57385;41.832;23.494;2022-08-19T04:53:49;90991.72;;;19.42;60.89
70046;BME280;57385;41.832;23.494;2022-08-19T04:54:09;90982.44;;;19.36;60.83
70046;BME280;57385;41.832;23.494;2022-08-19T04:54:28;90981.66;;;19.35;60.75
70046;BME280;57385;41.832;23.494;2022-08-19T04:54:48;90969.72;;;19.34;60.85
70046;BME280;57385;41.832;23.494;2022-08-19T04:55:09;90983.22;;;19.36;60.86
70046;BME280;57385;41.832;23.494;2022-08-19T04:55:28;90989.69;;;19.39;60.90
70046;BME280;57385;41.832;23.494;2022-08-19T04:55:48;90988.63;;;19.40;60.79
70046;BME280;57385;41.832;23.494;2022-08-19T04:56:11;90997.66;;;19.47;61.02
70046;BME280;57385;41.832;23.494;2022-08-19T04:56:31;90976.19;;;19.37;61.25
70046;BME280;57385;41.832;23.494;2022-08-19T04:56:52;90978.50;;;19.38;60.95
70046;BME280;57385;41.832;23.494;2022-08-19T04:57:12;90961.38;;;19.32;60.90
70046;BME280;57385;41.832;23.494;2022-08-19T04:57:31;90985.97;;;19.45;60.83
70046;BME280;57385;41.832;23.494;2022-08-19T04:57:50;90970.69;;;19.38;61.30
70046;BME280;57385;41.832;23.494;2022-08-19T04:58:10;90972.75;;;19.41;61.02
70046;BME280;57385;41.832;23.494;2022-08-19T04:58:29;90964.44;;;19.39;61.08
70046;BME280;57385;41.832;23.494;2022-08-19T04:58:49;90978.13;;;19.50;60.95
70046;BME280;57385;41.832;23.494;2022-08-19T04:59:09;90968.03;;;19.43;61.18
70046;BME280;57385;41.832;23.494;2022-08-19T04:59:28;90963.41;;;19.40;61.27
70046;BME280;57385;41.832;23.494;2022-08-19T04:59:48;90955.09;;;19.38;61.21
70046;BME280;57385;41.832;23.494;2022-08-19T05:00:09;90965.72;;;19.42;61.31
70046;BME280;57385;41.832;23.494;2022-08-19T05:00:29;90966.00;;;19.40;61.12
70046;BME280;57385;41.832;23.494;2022-08-19T05:00:49;90955.38;;;19.37;61.52
70046;BME280;57385;41.832;23.494;2022-08-19T05:01:11;90977.34;;;19.49;61.11
70046;BME280;57385;41.832;23.494;2022-08-19T05:01:32;90965.44;;;19.43;61.16
70046;BME280;57385;41.832;23.494;2022-08-19T05:01:52;90967.72;;;19.50;61.32
70046;BME280;57385;41.832;23.494;2022-08-19T05:02:11;90958.19;;;19.40;61.52
70046;BME280;57385;41.832;23.494;2022-08-19T05:02:31;90961.78;;;19.44;60.91
70046;BME280;57385;41.832;23.494;2022-08-19T05:02:50;90957.13;;;19.41;61.34
70046;BME280;57385;41.832;23.494;2022-08-19T05:03:10;90962.56;;;19.45;61.48
70046;BME280;57385;41.832;23.494;2022-08-19T05:03:29;90944.75;;;19.33;61.26
70046;BME280;57385;41.832;23.494;2022-08-19T05:03:49;90974.19;;;19.52;60.90
70046;BME280;57385;41.832;23.494;2022-08-19T05:04:09;90970.59;;;19.48;61.31
70046;BME280;57385;41.832;23.494;2022-08-19T05:04:29;90953.47;;;19.42;60.92
70046;BME280;57385;41.832;23.494;2022-08-19T05:04:48;90971.88;;;19.51;61.34
70046;BME280;57385;41.832;23.494;2022-08-19T05:05:08;90959.13;;;19.49;61.54
70046;BME280;57385;41.832;23.494;2022-08-19T05:05:27;90980.91;;;19.59;61.00
70046;BME280;57385;41.832;23.494;2022-08-19T05:05:48;90959.75;;;19.41;61.05
70046;BME280;57385;41.832;23.494;2022-08-19T05:06:10;90979.59;;;19.61;60.99
70046;BME280;57385;41.832;23.494;2022-08-19T05:06:32;90960.47;;;19.47;61.05
70046;BME280;57385;41.832;23.494;2022-08-19T05:06:51;90970.28;;;19.55;60.92
70046;BME280;57385;41.832;23.494;2022-08-19T05:07:11;90967.94;;;19.53;60.91
70046;BME280;57385;41.832;23.494;2022-08-19T05:07:30;90954.75;;;19.45;61.08
70046;BME280;57385;41.832;23.494;2022-08-19T05:07:50;90957.03;;;19.51;60.82
70046;BME280;57385;41.832;23.494;2022-08-19T05:08:10;90956.28;;;19.46;60.84
70046;BME280;57385;41.832;23.494;2022-08-19T05:08:29;90966.91;;;19.55;60.67
70046;BME280;57385;41.832;23.494;2022-08-19T05:08:49;90973.09;;;19.59;60.42
70046;BME280;57385;41.832;23.494;2022-08-19T05:09:09;90972.31;;;19.58;60.42
70046;BME280;57385;41.832;23.494;2022-08-19T05:09:29;90959.91;;;19.50;60.54
70046;BME280;57385;41.832;23.494;2022-08-19T05:09:48;90971.06;;;19.56;60.15
70046;BME280;57385;41.832;23.494;2022-08-19T05:10:08;90984.22;;;19.64;59.99
70046;BME280;57385;41.832;23.494;2022-08-19T05:10:27;90976.22;;;19.61;60.46
70046;BME280;57385;41.832;23.494;2022-08-19T05:10:49;90974.88;;;19.63;60.68
70046;BME280;57385;41.832;23.494;2022-08-19T05:11:13;90983.88;;;19.71;60.57
70046;BME280;57385;41.832;23.494;2022-08-19T05:11:35;90987.25;;;19.71;60.26
70046;BME280;57385;41.832;23.494;2022-08-19T05:11:54;90972.84;;;19.60;60.33
70046;BME280;57385;41.832;23.494;2022-08-19T05:12:14;90979.81;;;19.65;60.62
70046;BME280;57385;41.832;23.494;2022-08-19T05:12:34;90953.38;;;19.52;60.55
70046;BME280;57385;41.832;23.494;2022-08-19T05:12:53;90964.50;;;19.58;60.36
70046;BME280;57385;41.832;23.494;2022-08-19T05:13:14;90957.03;;;19.51;60.35
70046;BME280;57385;41.832;23.494;2022-08-19T05:13:33;90956.50;;;19.55;60.60
70046;BME280;57385;41.832;23.494;2022-08-19T05:13:53;90953.91;;;19.55;60.58
70046;BME280;57385;41.832;23.494;2022-08-19T05:14:13;90974.31;;;19.66;60.52
70046;BME280;57385;41.832;23.494;2022-08-19T05:14:32;90954.88;;;19.59;60.11
70046;BME280;57385;41.832;23.494;2022-08-19T05:14:52;90971.22;;;19.64;60.02
70046;BME280;57385;41.832;23.494;2022-08-19T05:15:11;90976.06;;;19.71;60.21
70046;BME280;57385;41.832;23.494;2022-08-19T05:15:31;90966.78;;;19.65;59.92
70046;BME280;57385;41.832;23.494;2022-08-19T05:15:57;90968.34;;;19.66;60.43
70046;BME280;57385;41.832;23.494;2022-08-19T05:16:19;90990.88;;;19.75;59.69
70046;BME280;57385;41.832;23.494;2022-08-19T05:16:40;90975.09;;;19.67;59.89
70046;BME280;57385;41.832;23.494;2022-08-19T05:17:00;90970.94;;;19.66;60.10
70046;BME280;57385;41.832;23.494;2022-08-19T05:17:20;90988.47;;;19.79;59.62
70046;BME280;57385;41.832;23.494;2022-08-19T05:17:39;90956.44;;;19.60;59.72
70046;BME280;57385;41.832;23.494;2022-08-19T05:17:59;90977.41;;;19.68;60.13
70046;BME280;57385;41.832;23.494;2022-08-19T05:18:18;90990.59;;;19.77;59.87
70046;BME280;57385;41.832;23.494;2022-08-19T05:18:38;90987.91;;;19.82;59.91
70046;BME280;57385;41.832;23.494;2022-08-19T05:18:58;90961.59;;;19.65;60.21
70046;BME280;57385;41.832;23.494;2022-08-19T05:19:17;90970.09;;;19.70;60.29
70046;BME280;57385;41.832;23.494;2022-08-19T05:19:36;90974.25;;;19.71;60.15
70046;BME280;57385;41.832;23.494;2022-08-19T05:19:56;90978.84;;;19.79;60.09
70046;BME280;57385;41.832;23.494;2022-08-19T05:20:16;90978.63;;;19.76;60.32
70046;BME280;57385;41.832;23.494;2022-08-19T05:20:38;90994.09;;;19.86;60.57
70046;BME280;57385;41.832;23.494;2022-08-19T05:20:58;90994.88;;;19.87;60.48
70046;BME280;57385;41.832;23.494;2022-08-19T05:21:18;91001.09;;;19.91;60.97
70046;BME280;57385;41.832;23.494;2022-08-19T05:21:39;90991.50;;;19.86;60.64
70046;BME280;57385;41.832;23.494;2022-08-19T05:22:00;90998.97;;;19.93;61.01
70046;BME280;57385;41.832;23.494;2022-08-19T05:22:19;90988.69;;;19.82;60.89
70046;BME280;57385;41.832;23.494;2022-08-19T05:22:39;90992.28;;;19.87;61.06
70046;BME280;57385;41.832;23.494;2022-08-19T05:22:59;90986.53;;;19.90;60.84
70046;BME280;57385;41.832;23.494;2022-08-19T05:23:18;90995.13;;;19.90;61.36
70046;BME280;57385;41.832;23.494;2022-08-19T05:23:38;90988.38;;;19.89;61.00
70046;BME280;57385;41.832;23.494;2022-08-19T05:23:58;90988.66;;;19.88;60.68
70046;BME280;57385;41.832;23.494;2022-08-19T05:24:18;91002.28;;;19.98;60.88
70046;BME280;57385;41.832;23.494;2022-08-19T05:24:37;90980.03;;;19.87;60.63
70046;BME280;57385;41.832;23.494;2022-08-19T05:25:01;90975.47;;;19.79;60.94
70046;BME280;57385;41.832;23.494;2022-08-19T05:25:21;90975.69;;;19.82;61.01
70046;BME280;57385;41.832;23.494;2022-08-19T05:25:41;90986.81;;;19.88;61.24
70046;BME280;57385;41.832;23.494;2022-08-19T05:26:00;91005.13;;;20.02;60.89
70046;BME280;57385;41.832;23.494;2022-08-19T05:26:20;90987.59;;;19.89;61.34
70046;BME280;57385;41.832;23.494;2022-08-19T05:26:42;91000.44;;;19.99;61.27
70046;BME280;57385;41.832;23.494;2022-08-19T05:27:02;91000.44;;;19.99;61.18
70046;BME280;57385;41.832;23.494;2022-08-19T05:27:22;90993.94;;;20.01;61.14
70046;BME280;57385;41.832;23.494;2022-08-19T05:27:42;91002.16;;;20.08;60.71
70046;BME280;57385;41.832;23.494;2022-08-19T05:28:01;90984.13;;;19.93;60.85
70046;BME280;57385;41.832;23.494;2022-08-19T05:28:21;90993.41;;;19.99;60.68
70046;BME280;57385;41.832;23.494;2022-08-19T05:28:40;90983.56;;;19.96;60.94
70046;BME280;57385;41.832;23.494;2022-08-19T05:29:00;90983.09;;;19.94;61.06
70046;BME280;57385;41.832;23.494;2022-08-19T05:29:20;90993.09;;;20.06;61.05
70046;BME280;57385;41.832;23.494;2022-08-19T05:29:40;90993.38;;;20.04;60.28
70046;BME280;57385;41.832;23.494;2022-08-19T05:30:00;90982.22;;;19.99;60.38
70046;BME280;57385;41.832;23.494;2022-08-19T05:30:20;91002.38;;;20.12;59.32
70046;BME280;57385;41.832;23.494;2022-08-19T05:30:39;91001.03;;;20.15;59.58
70046;BME280;57385;41.832;23.494;2022-08-19T05:30:58;90998.72;;;20.13;59.58
70046;BME280;57385;41.832;23.494;2022-08-19T05:31:18;91000.53;;;20.12;59.66
70046;BME280;57385;41.832;23.494;2022-08-19T05:31:38;91009.06;;;20.18;59.46
70046;BME280;57385;41.832;23.494;2022-08-19T05:31:58;91014.50;;;20.22;59.57
70046;BME280;57385;41.832;23.494;2022-08-19T05:32:17;91000.00;;;20.16;59.42
70046;BME280;57385;41.832;23.494;2022-08-19T05:32:38;90998.16;;;20.16;59.61
70046;BME280;57385;41.832;23.494;2022-08-19T05:32:58;90995.81;;;20.15;59.64
70046;BME280;57385;41.832;23.494;2022-08-19T05:33:18;91009.75;;;20.24;59.51
70046;BME280;57385;41.832;23.494;2022-08-19T05:33:37;90998.38;;;20.20;59.48
70046;BME280;57385;41.832;23.494;2022-08-19T05:33:57;90997.59;;;20.19;59.65
70046;BME280;57385;41.832;23.494;2022-08-19T05:34:18;91016.81;;;20.23;60.06
70046;BME280;57385;41.832;23.494;2022-08-19T05:34:38;91008.78;;;20.20;60.08
70046;BME280;57385;41.832;23.494;2022-08-19T05:34:57;90997.41;;;20.16;59.72
70046;BME280;57385;41.832;23.494;2022-08-19T05:35:17;90989.06;;;20.13;59.41
70046;BME280;57385;41.832;23.494;2022-08-19T05:35:38;90995.78;;;20.20;59.32
70046;BME280;57385;41.832;23.494;2022-08-19T05:35:57;90998.09;;;20.21;59.35
70046;BME280;57385;41.832;23.494;2022-08-19T05:36:17;91004.06;;;20.22;59.52
70046;BME280;57385;41.832;23.494;2022-08-19T05:36:41;90995.56;;;20.16;59.51
70046;BME280;57385;41.832;23.494;2022-08-19T05:37:02;91008.66;;;20.30;59.55
70046;BME280;57385;41.832;23.494;2022-08-19T05:37:22;90995.50;;;20.21;59.44
70046;BME280;57385;41.832;23.494;2022-08-19T05:37:42;90988.81;;;20.15;59.87
70046;BME280;57385;41.832;23.494;2022-08-19T05:38:01;91011.19;;;20.35;59.95
70046;BME280;57385;41.832;23.494;2022-08-19T05:38:21;90985.91;;;20.17;60.13
70046;BME280;57385;41.832;23.494;2022-08-19T05:38:40;90977.81;;;20.18;59.81
70046;BME280;57385;41.832;23.494;2022-08-19T05:39:00;91006.09;;;20.25;60.51
70046;BME280;57385;41.832;23.494;2022-08-19T05:39:20;91014.19;;;20.23;61.03
70046;BME280;57385;41.832;23.494;2022-08-19T05:39:40;90995.81;;;20.15;61.25
70046;BME280;57385;41.832;23.494;2022-08-19T05:39:59;90979.41;;;20.14;60.63
70046;BME280;57385;41.832;23.494;2022-08-19T05:40:19;91007.38;;;20.27;60.93
70046;BME280;57385;41.832;23.494;2022-08-19T05:40:39;91011.47;;;20.33;60.62
70046;BME280;57385;41.832;23.494;2022-08-19T05:40:59;91009.06;;;20.37;60.57
70046;BME280;57385;41.832;23.494;2022-08-19T05:41:19;91002.31;;;20.36;60.77
70046;BME280;57385;41.832;23.494;2022-08-19T05:41:43;90999.50;;;20.32;60.73
70046;BME280;57385;41.832;23.494;2022-08-19T05:42:10;91012.16;;;20.39;60.53
70046;BME280;57385;41.832;23.494;2022-08-19T05:42:30;91004.16;;;20.35;60.30
70046;BME280;57385;41.832;23.494;2022-08-19T05:42:50;91006.94;;;20.39;60.84
70046;BME280;57385;41.832;23.494;2022-08-19T05:43:09;90987.06;;;20.29;60.82
70046;BME280;57385;41.832;23.494;2022-08-19T05:43:29;90970.78;;;20.19;60.75
70046;BME280;57385;41.832;23.494;2022-08-19T05:43:48;90995.34;;;20.31;60.83
70046;BME280;57385;41.832;23.494;2022-08-19T05:44:08;90973.09;;;20.20;60.89
70046;BME280;57385;41.832;23.494;2022-08-19T05:44:29;90979.00;;;20.26;60.41
70046;BME280;57385;41.832;23.494;2022-08-19T05:44:52;90988.59;;;20.30;60.35
70046;BME280;57385;41.832;23.494;2022-08-19T05:45:14;90978.53;;;20.24;60.58
70046;BME280;57385;41.832;23.494;2022-08-19T05:45:38;91008.00;;;20.43;60.89
70046;BME280;57385;41.832;23.494;2022-08-19T05:45:58;91007.22;;;20.43;60.89
70046;BME280;57385;41.832;23.494;2022-08-19T05:46:21;90989.28;;;20.36;60.54
70046;BME280;57385;41.832;23.494;2022-08-19T05:46:44;90985.13;;;20.35;60.87
70046;BME280;57385;41.832;23.494;2022-08-19T05:47:07;90983.31;;;20.35;60.79
70046;BME280;57385;41.832;23.494;2022-08-19T05:47:26;90984.09;;;20.36;60.83
70046;BME280;57385;41.832;23.494;2022-08-19T05:47:46;90962.84;;;20.29;60.98
70046;BME280;57385;41.832;23.494;2022-08-19T05:48:09;90973.50;;;20.27;61.00
70046;BME280;57385;41.832;23.494;2022-08-19T05:48:28;90994.69;;;20.39;60.43
70046;BME280;57385;41.832;23.494;2022-08-19T05:48:48;91003.19;;;20.50;60.32
70046;BME280;57385;41.832;23.494;2022-08-19T05:49:08;90970.84;;;20.32;60.54
70046;BME280;57385;41.832;23.494;2022-08-19T05:49:28;90998.75;;;20.51;60.58
70046;BME280;57385;41.832;23.494;2022-08-19T05:49:48;90977.81;;;20.37;60.85
70046;BME280;57385;41.832;23.494;2022-08-19T05:50:08;90983.97;;;20.46;60.68
70046;BME280;57385;41.832;23.494;2022-08-19T05:50:27;90985.50;;;20.47;60.80
70046;BME280;57385;41.832;23.494;2022-08-19T05:50:47;90993.03;;;20.49;60.47
70046;BME280;57385;41.832;23.494;2022-08-19T05:51:07;90997.41;;;20.53;60.81
70046;BME280;57385;41.832;23.494;2022-08-19T05:51:26;90984.75;;;20.47;60.30
70046;BME280;57385;41.832;23.494;2022-08-19T05:51:46;90973.34;;;20.43;60.17
70046;BME280;57385;41.832;23.494;2022-08-19T05:52:10;90989.28;;;20.55;60.29
70046;BME280;57385;41.832;23.494;2022-08-19T05:52:30;90989.59;;;20.53;60.51
70046;BME280;57385;41.832;23.494;2022-08-19T05:52:49;90991.66;;;20.56;60.76
70046;BME280;57385;41.832;23.494;2022-08-19T05:53:09;90990.84;;;20.56;60.61
70046;BME280;57385;41.832;23.494;2022-08-19T05:53:28;90981.75;;;20.53;60.42
70046;BME280;57385;41.832;23.494;2022-08-19T05:53:49;90988.19;;;20.61;59.86
70046;BME280;57385;41.832;23.494;2022-08-19T05:54:09;90990.00;;;20.60;60.13
70046;BME280;57385;41.832;23.494;2022-08-19T05:54:32;90968.53;;;20.50;60.15
70046;BME280;57385;41.832;23.494;2022-08-19T05:54:58;90984.78;;;20.60;60.11
70046;BME280;57385;41.832;23.494;2022-08-19T05:55:18;90978.63;;;20.56;60.34
70046;BME280;57385;41.832;23.494;2022-08-19T05:55:37;90979.09;;;20.58;59.83
70046;BME280;57385;41.832;23.494;2022-08-19T05:55:57;90974.44;;;20.55;60.17
70046;BME280;57385;41.832;23.494;2022-08-19T05:56:17;90999.44;;;20.75;59.72
70046;BME280;57385;41.832;23.494;2022-08-19T05:56:37;90988.38;;;20.64;60.48
70046;BME280;57385;41.832;23.494;2022-08-19T05:56:57;90997.41;;;20.72;60.05
70046;BME280;57385;41.832;23.494;2022-08-19T05:57:16;90979.59;;;20.60;60.30
70046;BME280;57385;41.832;23.494;2022-08-19T05:57:36;90974.28;;;20.65;60.21
70046;BME280;57385;41.832;23.494;2022-08-19T05:57:55;90986.75;;;20.68;60.17
70046;BME280;57385;41.832;23.494;2022-08-19T05:58:15;90979.31;;;20.62;60.42
70046;BME280;57385;41.832;23.494;2022-08-19T05:58:36;90970.22;;;20.59;60.52
70046;BME280;57385;41.832;23.494;2022-08-19T05:58:57;90994.00;;;20.72;60.45
70046;BME280;57385;41.832;23.494;2022-08-19T05:59:17;90997.22;;;20.82;60.74
70046;BME280;57385;41.832;23.494;2022-08-19T05:59:37;90979.44;;;20.70;60.56
70046;BME280;57385;41.832;23.494;2022-08-19T05:59:57;90987.38;;;20.79;60.62
70046;BME280;57385;41.832;23.494;2022-08-19T06:00:16;91001.88;;;20.85;60.47
70046;BME280;57385;41.832;23.494;2022-08-19T06:00:37;90974.91;;;20.76;60.18
70046;BME280;57385;41.832;23.494;2022-08-19T06:00:56;90975.97;;;20.75;60.28
70046;BME280;57385;41.832;23.494;2022-08-19T06:01:19;90973.38;;;20.75;60.41
70046;BME280;57385;41.832;23.494;2022-08-19T06:01:40;90965.63;;;20.70;60.83
70046;BME280;57385;41.832;23.494;2022-08-19T06:02:00;90965.84;;;20.74;59.90
70046;BME280;57385;41.832;23.494;2022-08-19T06:02:19;90970.94;;;20.79;60.17
70046;BME280;57385;41.832;23.494;2022-08-19T06:02:39;90997.25;;;20.96;60.22
70046;BME280;57385;41.832;23.494;2022-08-19T06:02:59;90975.59;;;20.82;60.20
70046;BME280;57385;41.832;23.494;2022-08-19T06:03:18;90997.47;;;20.99;60.28
70046;BME280;57385;41.832;23.494;2022-08-19T06:03:38;90974.03;;;20.81;60.01
70046;BME280;57385;41.832;23.494;2022-08-19T06:04:00;90980.44;;;20.88;59.90
70046;BME280;57385;41.832;23.494;2022-08-19T06:04:23;90980.75;;;20.87;59.94
70046;BME280;57385;41.832;23.494;2022-08-19T06:04:46;90972.16;;;20.86;59.75
70046;BME280;57385;41.832;23.494;2022-08-19T06:05:07;90977.84;;;20.88;60.11
70046;BME280;57385;41.832;23.494;2022-08-19T06:05:26;90968.75;;;20.86;60.92
70046;BME280;57385;41.832;23.494;2022-08-19T06:05:46;90974.38;;;20.93;61.24
70046;BME280;57385;41.832;23.494;2022-08-19T06:06:08;90965.88;;;20.87;60.33
70046;BME280;57385;41.832;23.494;2022-08-19T06:06:28;90974.47;;;20.88;60.53
70046;BME280;57385;41.832;23.494;2022-08-19T06:06:49;90997.88;;;21.07;60.55
70046;BME280;57385;41.832;23.494;2022-08-19T06:07:09;90967.59;;;20.92;60.39
70046;BME280;57385;41.832;23.494;2022-08-19T06:07:29;90985.13;;;21.05;59.88
70046;BME280;57385;41.832;23.494;2022-08-19T06:07:48;90990.63;;;21.04;59.98
70046;BME280;57385;41.832;23.494;2022-08-19T06:08:08;90977.28;;;21.05;60.26
70046;BME280;57385;41.832;23.494;2022-08-19T06:08:28;90969.34;;;20.96;59.86
70046;BME280;57385;41.832;23.494;2022-08-19T06:08:48;90987.63;;;21.10;60.12
70046;BME280;57385;41.832;23.494;2022-08-19T06:09:07;90988.44;;;21.11;60.08
70046;BME280;57385;41.832;23.494;2022-08-19T06:09:27;90988.34;;;21.16;60.30
70046;BME280;57385;41.832;23.494;2022-08-19T06:09:47;90971.88;;;21.02;59.88
70046;BME280;57385;41.832;23.494;2022-08-19T06:10:08;90973.63;;;21.06;60.14
70046;BME280;57385;41.832;23.494;2022-08-19T06:10:39;90974.59;;;21.10;60.33
70046;BME280;57385;41.832;23.494;2022-08-19T06:11:22;90966.88;;;21.05;60.08
70046;BME280;57385;41.832;23.494;2022-08-19T06:11:48;90990.81;;;21.26;59.78
70046;BME280;57385;41.832;23.494;2022-08-19T06:12:11;90976.84;;;21.17;60.48
70046;BME280;57385;41.832;23.494;2022-08-19T06:12:32;90988.19;;;21.26;60.12
70046;BME280;57385;41.832;23.494;2022-08-19T06:12:52;90962.06;;;21.12;60.53
70046;BME280;57385;41.832;23.494;2022-08-19T06:13:12;90972.88;;;21.19;60.35
70046;BME280;57385;41.832;23.494;2022-08-19T06:13:37;90980.38;;;21.26;59.81
70046;BME280;57385;41.832;23.494;2022-08-19T06:13:56;90972.59;;;21.21;59.48
70046;BME280;57385;41.832;23.494;2022-08-19T06:14:18;90964.09;;;21.15;59.21
70046;BME280;57385;41.832;23.494;2022-08-19T06:14:38;90977.75;;;21.26;60.18
70046;BME280;57385;41.832;23.494;2022-08-19T06:15:08;90966.59;;;21.20;59.78
70046;BME280;57385;41.832;23.494;2022-08-19T06:15:29;90966.78;;;21.24;60.03
70046;BME280;57385;41.832;23.494;2022-08-19T06:15:51;90963.69;;;21.22;59.98
70046;BME280;57385;41.832;23.494;2022-08-19T06:16:10;90971.38;;;21.32;59.83
70046;BME280;57385;41.832;23.494;2022-08-19T06:16:30;90984.31;;;21.37;59.92
70046;BME280;57385;41.832;23.494;2022-08-19T06:17:15;90970.31;;;21.33;59.16
70046;BME280;57385;41.832;23.494;2022-08-19T06:17:44;90982.13;;;21.44;59.15
70046;BME280;57385;41.832;23.494;2022-08-19T06:18:03;90974.09;;;21.41;59.47
70046;BME280;57385;41.832;23.494;2022-08-19T06:18:26;90960.66;;;21.34;59.62
70046;BME280;57385;41.832;23.494;2022-08-19T06:18:45;90991.13;;;21.52;59.32
70046;BME280;57385;41.832;23.494;2022-08-19T06:19:07;90965.78;;;21.39;59.71
70046;BME280;57385;41.832;23.494;2022-08-19T06:19:29;90980.47;;;21.48;59.20
70046;BME280;57385;41.832;23.494;2022-08-19T06:19:49;90974.97;;;21.50;58.83
70046;BME280;57385;41.832;23.494;2022-08-19T06:20:11;90977.97;;;21.57;59.13
70046;BME280;57385;41.832;23.494;2022-08-19T06:20:31;90973.88;;;21.51;58.46
70046;BME280;57385;41.832;23.494;2022-08-19T06:20:50;90971.56;;;21.49;58.71
70046;BME280;57385;41.832;23.494;2022-08-19T06:21:10;90975.94;;;21.54;58.73
70046;BME280;57385;41.832;23.494;2022-08-19T06:21:30;90968.78;;;21.46;58.81
70046;BME280;57385;41.832;23.494;2022-08-19T06:21:50;90989.56;;;21.65;59.22
70046;BME280;57385;41.832;23.494;2022-08-19T06:22:10;90978.06;;;21.52;59.12
70046;BME280;57385;41.832;23.494;2022-08-19T06:22:30;90963.84;;;21.44;59.05
70046;BME280;57385;41.832;23.494;2022-08-19T06:22:49;90972.56;;;21.53;59.64
70046;BME280;57385;41.832;23.494;2022-08-19T06:23:09;90962.91;;;21.54;59.78
70046;BME280;57385;41.832;23.494;2022-08-19T06:23:28;90972.63;;;21.62;59.16
70046;BME280;57385;41.832;23.494;2022-08-19T06:23:48;90966.66;;;21.62;58.75
70046;BME280;57385;41.832;23.494;2022-08-19T06:24:11;90981.16;;;21.68;59.01